sensor_id;sensor_type;location;lat;lon;timestamp;P1;durP1;ratioP1;P2;durP2;ratioP2
13660;SDS011;6903;49.480;11.102;2023-03-31T00:01:34;6.60;;;2.30;;
13660;SDS011;6903;49.480;11.102;2023-03-31T00:04:01;4.17;;;2.27;;
13660;SDS011;6903;49.480;11.102;2023-03-31T00:06:28;5.93;;;2.20;;
13660;SDS011;6903;49.480;11.102;2023-03-31T00:08:54;5.33;;;2.30;;
13660;SDS011;6903;49.480;11.102;2023-03-31T00:11:20;4.47;;;2.30;;
13660;SDS011;6903;49.480;11.102;2023-03-31T00:13:46;6.87;;;2.50;;
13660;SDS011;6903;49.480;11.102;2023-03-31T00:16:11;8.73;;;2.90;;
13660;SDS011;6903;49.480;11.102;2023-03-31T00:18:37;6.23;;;2.40;;
13660;SDS011;6903;49.480;11.102;2023-03-31T00:21:15;4.13;;;2.40;;
13660;SDS011;6903;49.480;11.102;2023-03-31T00:24:01;5.37;;;2.33;;
13660;SDS011;6903;49.480;11.102;2023-03-31T00:26:29;5.00;;;2.37;;
13660;SDS011;6903;49.480;11.102;2023-03-31T00:28:55;4.67;;;2.10;;
13660;SDS011;6903;49.480;11.102;2023-03-31T00:31:21;4.80;;;2.30;;
13660;SDS011;6903;49.480;11.102;2023-03-31T00:33:47;4.27;;;2.07;;
13660;SDS011;6903;49.480;11.102;2023-03-31T00:36:13;5.37;;;1.90;;
13660;SDS011;6903;49.480;11.102;2023-03-31T00:38:44;4.00;;;1.97;;
13660;SDS011;6903;49.480;11.102;2023-03-31T00:41:10;6.10;;;2.63;;
13660;SDS011;6903;49.480;11.102;2023-03-31T00:43:36;4.70;;;2.00;;
13660;SDS011;6903;49.480;11.102;2023-03-31T00:46:06;6.53;;;2.40;;
13660;SDS011;6903;49.480;11.102;2023-03-31T00:48:39;4.63;;;2.10;;
13660;SDS011;6903;49.480;11.102;2023-03-31T00:51:09;4.40;;;2.13;;
13660;SDS011;6903;49.480;11.102;2023-03-31T00:53:35;6.50;;;2.60;;
13660;SDS011;6903;49.480;11.102;2023-03-31T00:56:04;4.63;;;2.50;;
13660;SDS011;6903;49.480;11.102;2023-03-31T00:58:33;2.90;;;2.03;;
13660;SDS011;6903;49.480;11.102;2023-03-31T01:00:59;5.93;;;2.80;;
13660;SDS011;6903;49.480;11.102;2023-03-31T01:03:27;5.57;;;2.60;;
13660;SDS011;6903;49.480;11.102;2023-03-31T01:05:58;4.30;;;2.20;;
13660;SDS011;6903;49.480;11.102;2023-03-31T01:08:28;4.87;;;2.30;;
13660;SDS011;6903;49.480;11.102;2023-03-31T01:10:56;3.97;;;2.17;;
13660;SDS011;6903;49.480;11.102;2023-03-31T01:13:24;5.43;;;2.47;;
13660;SDS011;6903;49.480;11.102;2023-03-31T01:15:51;8.10;;;2.70;;
13660;SDS011;6903;49.480;11.102;2023-03-31T01:18:17;6.87;;;2.87;;
13660;SDS011;6903;49.480;11.102;2023-03-31T01:31:41;4.60;;;2.57;;
13660;SDS011;6903;49.480;11.102;2023-03-31T01:42:57;5.60;;;2.97;;
13660;SDS011;6903;49.480;11.102;2023-03-31T01:45:47;5.63;;;2.57;;
13660;SDS011;6903;49.480;11.102;2023-03-31T01:48:20;7.57;;;2.60;;
13660;SDS011;6903;49.480;11.102;2023-03-31T01:51:17;5.10;;;2.87;;
13660;SDS011;6903;49.480;11.102;2023-03-31T01:53:50;4.83;;;3.07;;
13660;SDS011;6903;49.480;11.102;2023-03-31T01:56:25;7.77;;;2.70;;
13660;SDS011;6903;49.480;11.102;2023-03-31T01:59:10;4.63;;;2.57;;
13660;SDS011;6903;49.480;11.102;2023-03-31T02:01:50;4.63;;;2.73;;
13660;SDS011;6903;49.480;11.102;2023-03-31T02:04:22;7.43;;;2.90;;
13660;SDS011;6903;49.480;11.102;2023-03-31T02:06:54;6.67;;;2.80;;
13660;SDS011;6903;49.480;11.102;2023-03-31T02:09:24;6.67;;;2.40;;
13660;SDS011;6903;49.480;11.102;2023-03-31T02:11:54;4.40;;;2.37;;
13660;SDS011;6903;49.480;11.102;2023-03-31T02:14:23;3.07;;;2.27;;
13660;SDS011;6903;49.480;11.102;2023-03-31T02:16:53;6.73;;;2.50;;
13660;SDS011;6903;49.480;11.102;2023-03-31T02:19:27;4.90;;;2.33;;
13660;SDS011;6903;49.480;11.102;2023-03-31T02:21:56;5.30;;;2.37;;
13660;SDS011;6903;49.480;11.102;2023-03-31T02:24:22;4.17;;;2.40;;
13660;SDS011;6903;49.480;11.102;2023-03-31T02:26:55;4.70;;;2.27;;
13660;SDS011;6903;49.480;11.102;2023-03-31T02:29:21;7.67;;;2.30;;
13660;SDS011;6903;49.480;11.102;2023-03-31T02:31:57;6.27;;;2.57;;
13660;SDS011;6903;49.480;11.102;2023-03-31T02:34:28;7.20;;;2.20;;
13660;SDS011;6903;49.480;11.102;2023-03-31T02:36:54;5.53;;;2.30;;
13660;SDS011;6903;49.480;11.102;2023-03-31T02:39:24;4.97;;;2.23;;
13660;SDS011;6903;49.480;11.102;2023-03-31T02:41:54;4.00;;;2.23;;
13660;SDS011;6903;49.480;11.102;2023-03-31T02:44:19;5.37;;;2.20;;
13660;SDS011;6903;49.480;11.102;2023-03-31T02:46:45;3.53;;;2.17;;
13660;SDS011;6903;49.480;11.102;2023-03-31T02:49:11;3.10;;;2.03;;
13660;SDS011;6903;49.480;11.102;2023-03-31T02:51:49;4.23;;;2.20;;
13660;SDS011;6903;49.480;11.102;2023-03-31T02:54:35;7.80;;;2.40;;
13660;SDS011;6903;49.480;11.102;2023-03-31T02:57:20;6.27;;;2.53;;
13660;SDS011;6903;49.480;11.102;2023-03-31T03:02:46;3.37;;;2.23;;
13660;SDS011;6903;49.480;11.102;2023-03-31T03:05:49;5.30;;;2.70;;
13660;SDS011;6903;49.480;11.102;2023-03-31T03:08:28;4.60;;;2.90;;
13660;SDS011;6903;49.480;11.102;2023-03-31T03:11:15;4.20;;;2.40;;
13660;SDS011;6903;49.480;11.102;2023-03-31T03:13:51;5.40;;;2.37;;
13660;SDS011;6903;49.480;11.102;2023-03-31T03:16:38;4.90;;;2.17;;
13660;SDS011;6903;49.480;11.102;2023-03-31T03:19:07;6.30;;;2.27;;
13660;SDS011;6903;49.480;11.102;2023-03-31T03:21:33;3.03;;;2.37;;
13660;SDS011;6903;49.480;11.102;2023-03-31T03:23:58;6.33;;;2.23;;
13660;SDS011;6903;49.480;11.102;2023-03-31T03:26:25;3.63;;;2.10;;
13660;SDS011;6903;49.480;11.102;2023-03-31T03:28:54;4.17;;;2.00;;
13660;SDS011;6903;49.480;11.102;2023-03-31T03:31:20;4.43;;;2.17;;
13660;SDS011;6903;49.480;11.102;2023-03-31T03:33:48;4.57;;;1.97;;
13660;SDS011;6903;49.480;11.102;2023-03-31T03:36:14;5.60;;;2.17;;
13660;SDS011;6903;49.480;11.102;2023-03-31T03:38:40;5.47;;;2.03;;
13660;SDS011;6903;49.480;11.102;2023-03-31T03:41:05;4.93;;;2.30;;
13660;SDS011;6903;49.480;11.102;2023-03-31T03:43:31;3.00;;;1.90;;
13660;SDS011;6903;49.480;11.102;2023-03-31T03:45:56;7.20;;;2.60;;
13660;SDS011;6903;49.480;11.102;2023-03-31T03:48:22;3.70;;;1.90;;
13660;SDS011;6903;49.480;11.102;2023-03-31T03:50:47;5.50;;;2.70;;
13660;SDS011;6903;49.480;11.102;2023-03-31T03:53:13;5.90;;;2.40;;
13660;SDS011;6903;49.480;11.102;2023-03-31T03:55:39;5.77;;;2.10;;
13660;SDS011;6903;49.480;11.102;2023-03-31T03:58:04;5.83;;;2.57;;
13660;SDS011;6903;49.480;11.102;2023-03-31T04:00:30;6.90;;;2.43;;
13660;SDS011;6903;49.480;11.102;2023-03-31T04:02:55;4.83;;;2.27;;
13660;SDS011;6903;49.480;11.102;2023-03-31T04:05:21;3.67;;;2.30;;
13660;SDS011;6903;49.480;11.102;2023-03-31T04:07:47;6.20;;;2.40;;
13660;SDS011;6903;49.480;11.102;2023-03-31T04:10:12;3.97;;;2.03;;
13660;SDS011;6903;49.480;11.102;2023-03-31T04:12:37;4.70;;;2.50;;
13660;SDS011;6903;49.480;11.102;2023-03-31T04:15:03;4.00;;;1.97;;
13660;SDS011;6903;49.480;11.102;2023-03-31T04:17:28;6.10;;;2.40;;
13660;SDS011;6903;49.480;11.102;2023-03-31T04:19:59;6.43;;;2.83;;
13660;SDS011;6903;49.480;11.102;2023-03-31T04:22:26;8.63;;;2.90;;
13660;SDS011;6903;49.480;11.102;2023-03-31T04:24:53;4.23;;;2.40;;
13660;SDS011;6903;49.480;11.102;2023-03-31T04:27:22;5.67;;;2.70;;
13660;SDS011;6903;49.480;11.102;2023-03-31T04:29:51;5.00;;;2.80;;
13660;SDS011;6903;49.480;11.102;2023-03-31T04:32:18;7.43;;;2.67;;
13660;SDS011;6903;49.480;11.102;2023-03-31T04:34:45;6.33;;;2.80;;
13660;SDS011;6903;49.480;11.102;2023-03-31T04:37:11;4.57;;;3.20;;
13660;SDS011;6903;49.480;11.102;2023-03-31T04:39:37;7.77;;;3.43;;
13660;SDS011;6903;49.480;11.102;2023-03-31T04:42:02;8.57;;;2.97;;
13660;SDS011;6903;49.480;11.102;2023-03-31T04:44:28;7.57;;;3.20;;
13660;SDS011;6903;49.480;11.102;2023-03-31T04:46:53;6.30;;;3.20;;
13660;SDS011;6903;49.480;11.102;2023-03-31T04:49:19;8.03;;;3.20;;
13660;SDS011;6903;49.480;11.102;2023-03-31T04:51:45;5.57;;;3.07;;
13660;SDS011;6903;49.480;11.102;2023-03-31T04:54:10;5.50;;;3.07;;
13660;SDS011;6903;49.480;11.102;2023-03-31T04:56:36;7.07;;;3.03;;
13660;SDS011;6903;49.480;11.102;2023-03-31T04:59:01;9.43;;;3.13;;
13660;SDS011;6903;49.480;11.102;2023-03-31T05:01:28;7.93;;;3.03;;
13660;SDS011;6903;49.480;11.102;2023-03-31T05:03:57;4.33;;;2.70;;
13660;SDS011;6903;49.480;11.102;2023-03-31T05:06:23;7.07;;;3.10;;
13660;SDS011;6903;49.480;11.102;2023-03-31T05:08:48;8.80;;;3.20;;
13660;SDS011;6903;49.480;11.102;2023-03-31T05:11:13;5.90;;;3.30;;
13660;SDS011;6903;49.480;11.102;2023-03-31T05:13:39;9.27;;;3.13;;
13660;SDS011;6903;49.480;11.102;2023-03-31T05:16:05;9.20;;;3.80;;
13660;SDS011;6903;49.480;11.102;2023-03-31T05:18:32;5.80;;;3.00;;
13660;SDS011;6903;49.480;11.102;2023-03-31T05:21:04;5.83;;;3.53;;
13660;SDS011;6903;49.480;11.102;2023-03-31T05:23:32;8.13;;;3.13;;
13660;SDS011;6903;49.480;11.102;2023-03-31T05:25:58;8.97;;;3.83;;
13660;SDS011;6903;49.480;11.102;2023-03-31T05:28:23;6.93;;;3.50;;
13660;SDS011;6903;49.480;11.102;2023-03-31T05:30:48;7.03;;;3.17;;
13660;SDS011;6903;49.480;11.102;2023-03-31T05:33:13;6.17;;;3.20;;
13660;SDS011;6903;49.480;11.102;2023-03-31T05:35:39;7.40;;;2.97;;
13660;SDS011;6903;49.480;11.102;2023-03-31T05:38:04;7.60;;;3.60;;
13660;SDS011;6903;49.480;11.102;2023-03-31T05:40:30;6.93;;;3.37;;
13660;SDS011;6903;49.480;11.102;2023-03-31T05:42:55;7.80;;;3.80;;
13660;SDS011;6903;49.480;11.102;2023-03-31T05:45:21;8.03;;;3.50;;
13660;SDS011;6903;49.480;11.102;2023-03-31T05:47:46;6.90;;;3.10;;
13660;SDS011;6903;49.480;11.102;2023-03-31T05:50:11;7.83;;;3.07;;
13660;SDS011;6903;49.480;11.102;2023-03-31T05:52:36;4.77;;;2.80;;
13660;SDS011;6903;49.480;11.102;2023-03-31T05:55:02;11.53;;;3.30;;
13660;SDS011;6903;49.480;11.102;2023-03-31T05:57:28;9.00;;;3.33;;
13660;SDS011;6903;49.480;11.102;2023-03-31T05:59:53;6.67;;;3.40;;
13660;SDS011;6903;49.480;11.102;2023-03-31T06:02:19;6.93;;;3.20;;
13660;SDS011;6903;49.480;11.102;2023-03-31T06:04:44;7.30;;;2.93;;
13660;SDS011;6903;49.480;11.102;2023-03-31T06:07:09;9.67;;;3.53;;
13660;SDS011;6903;49.480;11.102;2023-03-31T06:09:35;6.27;;;2.57;;
13660;SDS011;6903;49.480;11.102;2023-03-31T06:12:00;9.47;;;3.30;;
13660;SDS011;6903;49.480;11.102;2023-03-31T06:14:26;11.57;;;3.23;;
13660;SDS011;6903;49.480;11.102;2023-03-31T06:16:52;6.37;;;3.20;;
13660;SDS011;6903;49.480;11.102;2023-03-31T06:19:17;6.17;;;3.10;;
13660;SDS011;6903;49.480;11.102;2023-03-31T06:21:42;4.70;;;2.80;;
13660;SDS011;6903;49.480;11.102;2023-03-31T06:24:08;6.10;;;2.97;;
13660;SDS011;6903;49.480;11.102;2023-03-31T06:26:34;7.13;;;3.23;;
13660;SDS011;6903;49.480;11.102;2023-03-31T06:28:59;7.23;;;3.40;;
13660;SDS011;6903;49.480;11.102;2023-03-31T06:31:25;10.63;;;3.67;;
13660;SDS011;6903;49.480;11.102;2023-03-31T06:33:50;8.07;;;3.43;;
13660;SDS011;6903;49.480;11.102;2023-03-31T06:36:17;7.90;;;3.30;;
13660;SDS011;6903;49.480;11.102;2023-03-31T06:38:45;6.53;;;2.87;;
13660;SDS011;6903;49.480;11.102;2023-03-31T06:41:11;6.97;;;3.00;;
13660;SDS011;6903;49.480;11.102;2023-03-31T06:43:38;7.37;;;3.10;;
13660;SDS011;6903;49.480;11.102;2023-03-31T06:46:04;8.50;;;3.33;;
13660;SDS011;6903;49.480;11.102;2023-03-31T06:48:30;5.53;;;3.27;;
13660;SDS011;6903;49.480;11.102;2023-03-31T06:50:58;5.53;;;3.00;;
13660;SDS011;6903;49.480;11.102;2023-03-31T06:53:25;8.60;;;3.57;;
13660;SDS011;6903;49.480;11.102;2023-03-31T06:55:50;7.53;;;3.50;;
13660;SDS011;6903;49.480;11.102;2023-03-31T06:58:15;5.57;;;2.90;;
13660;SDS011;6903;49.480;11.102;2023-03-31T07:00:41;6.37;;;3.23;;
13660;SDS011;6903;49.480;11.102;2023-03-31T07:03:06;5.87;;;3.53;;
13660;SDS011;6903;49.480;11.102;2023-03-31T07:05:32;8.53;;;3.67;;
13660;SDS011;6903;49.480;11.102;2023-03-31T07:07:58;6.43;;;4.20;;
13660;SDS011;6903;49.480;11.102;2023-03-31T07:10:25;10.93;;;4.87;;
13660;SDS011;6903;49.480;11.102;2023-03-31T07:12:53;8.40;;;4.03;;
13660;SDS011;6903;49.480;11.102;2023-03-31T07:15:18;7.23;;;4.20;;
13660;SDS011;6903;49.480;11.102;2023-03-31T07:17:44;8.80;;;4.40;;
13660;SDS011;6903;49.480;11.102;2023-03-31T07:20:11;10.27;;;5.27;;
13660;SDS011;6903;49.480;11.102;2023-03-31T07:22:39;9.00;;;5.10;;
13660;SDS011;6903;49.480;11.102;2023-03-31T07:25:05;9.73;;;5.80;;
13660;SDS011;6903;49.480;11.102;2023-03-31T07:27:32;10.00;;;5.03;;
13660;SDS011;6903;49.480;11.102;2023-03-31T07:29:57;13.20;;;5.10;;
13660;SDS011;6903;49.480;11.102;2023-03-31T07:32:22;15.07;;;5.30;;
13660;SDS011;6903;49.480;11.102;2023-03-31T07:34:48;10.40;;;5.27;;
13660;SDS011;6903;49.480;11.102;2023-03-31T07:37:13;10.37;;;5.60;;
13660;SDS011;6903;49.480;11.102;2023-03-31T07:39:38;10.07;;;5.00;;
13660;SDS011;6903;49.480;11.102;2023-03-31T07:42:03;11.37;;;5.10;;
13660;SDS011;6903;49.480;11.102;2023-03-31T07:44:31;11.67;;;5.70;;
13660;SDS011;6903;49.480;11.102;2023-03-31T07:46:58;8.87;;;5.33;;
13660;SDS011;6903;49.480;11.102;2023-03-31T07:49:25;8.60;;;5.70;;
13660;SDS011;6903;49.480;11.102;2023-03-31T07:51:50;9.83;;;6.20;;
13660;SDS011;6903;49.480;11.102;2023-03-31T07:54:15;7.67;;;5.43;;
13660;SDS011;6903;49.480;11.102;2023-03-31T07:56:41;10.90;;;6.17;;
13660;SDS011;6903;49.480;11.102;2023-03-31T07:59:06;8.10;;;5.47;;
13660;SDS011;6903;49.480;11.102;2023-03-31T08:01:31;10.53;;;5.97;;
13660;SDS011;6903;49.480;11.102;2023-03-31T08:03:57;11.60;;;6.57;;
13660;SDS011;6903;49.480;11.102;2023-03-31T08:06:23;10.70;;;6.70;;
13660;SDS011;6903;49.480;11.102;2023-03-31T08:08:50;10.93;;;6.00;;
13660;SDS011;6903;49.480;11.102;2023-03-31T08:11:16;11.23;;;7.10;;
13660;SDS011;6903;49.480;11.102;2023-03-31T08:13:42;12.33;;;6.30;;
13660;SDS011;6903;49.480;11.102;2023-03-31T08:16:07;11.37;;;6.80;;
13660;SDS011;6903;49.480;11.102;2023-03-31T08:18:33;11.10;;;6.80;;
13660;SDS011;6903;49.480;11.102;2023-03-31T08:20:58;12.93;;;7.30;;
13660;SDS011;6903;49.480;11.102;2023-03-31T08:23:24;16.40;;;7.53;;
13660;SDS011;6903;49.480;11.102;2023-03-31T08:25:49;9.00;;;7.47;;
13660;SDS011;6903;49.480;11.102;2023-03-31T08:28:14;15.60;;;8.40;;
13660;SDS011;6903;49.480;11.102;2023-03-31T08:30:40;9.87;;;7.23;;
13660;SDS011;6903;49.480;11.102;2023-03-31T08:33:06;12.47;;;7.73;;
13660;SDS011;6903;49.480;11.102;2023-03-31T08:35:32;13.50;;;8.10;;
13660;SDS011;6903;49.480;11.102;2023-03-31T08:37:58;11.57;;;7.73;;
13660;SDS011;6903;49.480;11.102;2023-03-31T08:40:24;14.77;;;8.00;;
13660;SDS011;6903;49.480;11.102;2023-03-31T08:42:54;16.30;;;8.27;;
13660;SDS011;6903;49.480;11.102;2023-03-31T08:45:28;11.90;;;7.13;;
13660;SDS011;6903;49.480;11.102;2023-03-31T08:48:05;13.00;;;7.33;;
13660;SDS011;6903;49.480;11.102;2023-03-31T08:50:44;11.40;;;7.10;;
13660;SDS011;6903;49.480;11.102;2023-03-31T08:55:49;13.10;;;7.03;;
13660;SDS011;6903;49.480;11.102;2023-03-31T08:58:35;7.90;;;6.13;;
13660;SDS011;6903;49.480;11.102;2023-03-31T09:11:55;7.93;;;6.30;;
13660;SDS011;6903;49.480;11.102;2023-03-31T09:14:32;8.63;;;6.10;;
13660;SDS011;6903;49.480;11.102;2023-03-31T09:17:19;7.63;;;5.63;;
13660;SDS011;6903;49.480;11.102;2023-03-31T09:19:51;8.70;;;6.47;;
13660;SDS011;6903;49.480;11.102;2023-03-31T09:22:30;9.20;;;5.80;;
13660;SDS011;6903;49.480;11.102;2023-03-31T09:27:39;8.50;;;6.17;;
13660;SDS011;6903;49.480;11.102;2023-03-31T09:30:49;8.20;;;5.70;;
13660;SDS011;6903;49.480;11.102;2023-03-31T09:33:03;8.20;;;5.40;;
13660;SDS011;6903;49.480;11.102;2023-03-31T09:35:36;7.77;;;5.07;;
13660;SDS011;6903;49.480;11.102;2023-03-31T09:38:02;7.00;;;5.40;;
13660;SDS011;6903;49.480;11.102;2023-03-31T09:40:27;6.53;;;4.90;;
13660;SDS011;6903;49.480;11.102;2023-03-31T09:42:54;6.13;;;5.00;;
13660;SDS011;6903;49.480;11.102;2023-03-31T09:45:23;6.20;;;4.60;;
13660;SDS011;6903;49.480;11.102;2023-03-31T09:47:49;5.53;;;4.37;;
13660;SDS011;6903;49.480;11.102;2023-03-31T09:50:16;7.07;;;4.43;;
13660;SDS011;6903;49.480;11.102;2023-03-31T09:52:43;5.70;;;4.93;;
13660;SDS011;6903;49.480;11.102;2023-03-31T09:57:46;6.43;;;4.13;;
13660;SDS011;6903;49.480;11.102;2023-03-31T10:02:52;4.53;;;3.50;;
13660;SDS011;6903;49.480;11.102;2023-03-31T10:10:42;5.25;;;3.08;;
13660;SDS011;6903;49.480;11.102;2023-03-31T10:13:09;4.00;;;2.65;;
13660;SDS011;6903;49.480;11.102;2023-03-31T10:15:38;3.72;;;2.90;;
13660;SDS011;6903;49.480;11.102;2023-03-31T10:18:04;5.57;;;2.70;;
13660;SDS011;6903;49.480;11.102;2023-03-31T10:20:30;3.95;;;2.60;;
13660;SDS011;6903;49.480;11.102;2023-03-31T10:23:02;2.90;;;2.20;;
13660;SDS011;6903;49.480;11.102;2023-03-31T10:25:31;3.33;;;2.38;;
13660;SDS011;6903;49.480;11.102;2023-03-31T10:27:59;5.03;;;2.35;;
13660;SDS011;6903;49.480;11.102;2023-03-31T10:30:28;3.65;;;2.13;;
13660;SDS011;6903;49.480;11.102;2023-03-31T10:32:59;3.08;;;2.10;;
13660;SDS011;6903;49.480;11.102;2023-03-31T10:35:30;3.63;;;2.00;;
13660;SDS011;6903;49.480;11.102;2023-03-31T10:38:01;2.85;;;1.85;;
13660;SDS011;6903;49.480;11.102;2023-03-31T10:40:31;3.60;;;1.88;;
13660;SDS011;6903;49.480;11.102;2023-03-31T10:43:00;3.83;;;2.03;;
13660;SDS011;6903;49.480;11.102;2023-03-31T10:45:43;4.57;;;1.98;;
13660;SDS011;6903;49.480;11.102;2023-03-31T10:48:17;6.10;;;1.95;;
13660;SDS011;6903;49.480;11.102;2023-03-31T10:50:50;3.03;;;1.80;;
13660;SDS011;6903;49.480;11.102;2023-03-31T10:53:16;4.25;;;1.83;;
13660;SDS011;6903;49.480;11.102;2023-03-31T11:01:05;5.47;;;2.10;;
13660;SDS011;6903;49.480;11.102;2023-03-31T11:03:46;4.70;;;2.10;;
13660;SDS011;6903;49.480;11.102;2023-03-31T11:09:04;3.15;;;1.67;;
13660;SDS011;6903;49.480;11.102;2023-03-31T11:11:43;5.88;;;1.83;;
13660;SDS011;6903;49.480;11.102;2023-03-31T11:14:35;4.95;;;1.95;;
13660;SDS011;6903;49.480;11.102;2023-03-31T11:20:02;3.65;;;1.60;;
13660;SDS011;6903;49.480;11.102;2023-03-31T11:28:24;4.63;;;1.52;;
13660;SDS011;6903;49.480;11.102;2023-03-31T11:31:02;3.08;;;1.55;;
13660;SDS011;6903;49.480;11.102;2023-03-31T11:42:25;2.60;;;1.55;;
13660;SDS011;6903;49.480;11.102;2023-03-31T11:44:57;3.13;;;1.20;;
13660;SDS011;6903;49.480;11.102;2023-03-31T11:47:29;3.70;;;1.20;;
13660;SDS011;6903;49.480;11.102;2023-03-31T11:50:43;2.28;;;1.08;;
13660;SDS011;6903;49.480;11.102;2023-03-31T11:52:55;4.50;;;1.30;;
13660;SDS011;6903;49.480;11.102;2023-03-31T11:55:22;2.92;;;1.38;;
13660;SDS011;6903;49.480;11.102;2023-03-31T12:00:36;3.85;;;1.40;;
13660;SDS011;6903;49.480;11.102;2023-03-31T12:05:50;3.70;;;1.30;;
13660;SDS011;6903;49.480;11.102;2023-03-31T12:08:27;2.88;;;1.17;;
13660;SDS011;6903;49.480;11.102;2023-03-31T12:10:59;3.67;;;1.65;;
13660;SDS011;6903;49.480;11.102;2023-03-31T12:13:38;3.10;;;1.42;;
13660;SDS011;6903;49.480;11.102;2023-03-31T12:21:54;1.70;;;1.10;;
13660;SDS011;6903;49.480;11.102;2023-03-31T12:24:24;1.63;;;1.02;;
13660;SDS011;6903;49.480;11.102;2023-03-31T12:29:35;2.40;;;1.08;;
13660;SDS011;6903;49.480;11.102;2023-03-31T12:32:11;2.08;;;1.00;;
13660;SDS011;6903;49.480;11.102;2023-03-31T12:34:45;1.13;;;0.65;;
13660;SDS011;6903;49.480;11.102;2023-03-31T12:59:34;1.08;;;0.88;;
13660;SDS011;6903;49.480;11.102;2023-03-31T13:04:33;1.33;;;0.88;;
13660;SDS011;6903;49.480;11.102;2023-03-31T13:06:59;2.67;;;0.90;;
13660;SDS011;6903;49.480;11.102;2023-03-31T13:09:44;3.63;;;1.30;;
13660;SDS011;6903;49.480;11.102;2023-03-31T13:12:15;4.43;;;1.10;;
13660;SDS011;6903;49.480;11.102;2023-03-31T13:14:43;1.95;;;0.88;;
13660;SDS011;6903;49.480;11.102;2023-03-31T13:17:12;1.93;;;0.60;;
13660;SDS011;6903;49.480;11.102;2023-03-31T13:19:44;1.63;;;0.80;;
13660;SDS011;6903;49.480;11.102;2023-03-31T13:22:31;3.20;;;0.90;;
13660;SDS011;6903;49.480;11.102;2023-03-31T13:27:55;1.83;;;0.67;;
13660;SDS011;6903;49.480;11.102;2023-03-31T13:33:06;2.90;;;1.27;;
13660;SDS011;6903;49.480;11.102;2023-03-31T13:35:34;2.03;;;1.73;;
13660;SDS011;6903;49.480;11.102;2023-03-31T13:41:08;2.00;;;1.03;;
13660;SDS011;6903;49.480;11.102;2023-03-31T13:46:33;2.80;;;0.97;;
13660;SDS011;6903;49.480;11.102;2023-03-31T13:49:15;2.93;;;0.90;;
13660;SDS011;6903;49.480;11.102;2023-03-31T14:02:56;3.23;;;1.07;;
13660;SDS011;6903;49.480;11.102;2023-03-31T14:05:32;1.30;;;0.70;;
13660;SDS011;6903;49.480;11.102;2023-03-31T14:11:15;2.63;;;1.30;;
13660;SDS011;6903;49.480;11.102;2023-03-31T14:13:42;2.07;;;1.10;;
13660;SDS011;6903;49.480;11.102;2023-03-31T14:16:08;4.23;;;1.30;;
13660;SDS011;6903;49.480;11.102;2023-03-31T14:18:34;3.13;;;1.43;;
13660;SDS011;6903;49.480;11.102;2023-03-31T14:21:09;2.33;;;1.00;;
13660;SDS011;6903;49.480;11.102;2023-03-31T14:23:57;3.40;;;1.10;;
13660;SDS011;6903;49.480;11.102;2023-03-31T14:36:01;3.00;;;1.23;;
13660;SDS011;6903;49.480;11.102;2023-03-31T14:38:43;3.83;;;1.10;;
13660;SDS011;6903;49.480;11.102;2023-03-31T14:41:14;3.33;;;1.13;;
13660;SDS011;6903;49.480;11.102;2023-03-31T14:43:45;3.23;;;1.00;;
13660;SDS011;6903;49.480;11.102;2023-03-31T14:46:17;4.17;;;0.90;;
13660;SDS011;6903;49.480;11.102;2023-03-31T14:48:45;2.80;;;0.90;;
13660;SDS011;6903;49.480;11.102;2023-03-31T14:51:13;2.73;;;0.80;;
13660;SDS011;6903;49.480;11.102;2023-03-31T14:53:40;2.43;;;0.80;;
13660;SDS011;6903;49.480;11.102;2023-03-31T14:56:08;2.10;;;0.70;;
13660;SDS011;6903;49.480;11.102;2023-03-31T14:58:39;2.60;;;0.90;;
13660;SDS011;6903;49.480;11.102;2023-03-31T15:01:08;4.33;;;0.90;;
13660;SDS011;6903;49.480;11.102;2023-03-31T15:03:41;1.80;;;0.83;;
13660;SDS011;6903;49.480;11.102;2023-03-31T15:06:07;3.03;;;0.80;;
13660;SDS011;6903;49.480;11.102;2023-03-31T15:08:34;1.97;;;1.00;;
13660;SDS011;6903;49.480;11.102;2023-03-31T15:11:05;2.67;;;0.87;;
13660;SDS011;6903;49.480;11.102;2023-03-31T15:13:36;2.23;;;1.13;;
13660;SDS011;6903;49.480;11.102;2023-03-31T15:18:54;2.17;;;0.97;;
13660;SDS011;6903;49.480;11.102;2023-03-31T15:21:22;2.73;;;1.20;;
13660;SDS011;6903;49.480;11.102;2023-03-31T15:23:52;3.10;;;0.77;;
13660;SDS011;6903;49.480;11.102;2023-03-31T15:26:39;4.17;;;1.40;;
13660;SDS011;6903;49.480;11.102;2023-03-31T15:29:16;2.20;;;1.13;;
13660;SDS011;6903;49.480;11.102;2023-03-31T15:31:46;2.83;;;0.70;;
13660;SDS011;6903;49.480;11.102;2023-03-31T15:34:23;2.67;;;1.10;;
13660;SDS011;6903;49.480;11.102;2023-03-31T15:36:52;2.67;;;0.90;;
13660;SDS011;6903;49.480;11.102;2023-03-31T15:39:19;2.70;;;1.07;;
13660;SDS011;6903;49.480;11.102;2023-03-31T15:41:46;2.53;;;1.33;;
13660;SDS011;6903;49.480;11.102;2023-03-31T15:47:00;1.93;;;0.90;;
13660;SDS011;6903;49.480;11.102;2023-03-31T15:49:37;2.07;;;1.00;;
13660;SDS011;6903;49.480;11.102;2023-03-31T15:52:21;2.13;;;1.10;;
13660;SDS011;6903;49.480;11.102;2023-03-31T15:54:51;1.23;;;0.70;;
13660;SDS011;6903;49.480;11.102;2023-03-31T15:57:16;4.13;;;1.17;;
13660;SDS011;6903;49.480;11.102;2023-03-31T16:02:13;4.43;;;1.10;;
13660;SDS011;6903;49.480;11.102;2023-03-31T16:04:41;4.50;;;1.33;;
13660;SDS011;6903;49.480;11.102;2023-03-31T16:12:39;2.87;;;1.20;;
13660;SDS011;6903;49.480;11.102;2023-03-31T16:15:17;1.97;;;1.03;;
13660;SDS011;6903;49.480;11.102;2023-03-31T16:17:46;2.03;;;1.23;;
13660;SDS011;6903;49.480;11.102;2023-03-31T16:20:19;3.00;;;1.30;;
13660;SDS011;6903;49.480;11.102;2023-03-31T16:22:47;2.33;;;1.03;;
13660;SDS011;6903;49.480;11.102;2023-03-31T16:25:17;1.67;;;0.90;;
13660;SDS011;6903;49.480;11.102;2023-03-31T16:27:45;2.90;;;1.00;;
13660;SDS011;6903;49.480;11.102;2023-03-31T16:30:20;4.60;;;1.40;;
13660;SDS011;6903;49.480;11.102;2023-03-31T16:35:36;2.40;;;1.10;;
13660;SDS011;6903;49.480;11.102;2023-03-31T16:38:04;3.60;;;1.30;;
13660;SDS011;6903;49.480;11.102;2023-03-31T16:40:34;3.63;;;1.10;;
13660;SDS011;6903;49.480;11.102;2023-03-31T16:45:43;3.30;;;1.07;;
13660;SDS011;6903;49.480;11.102;2023-03-31T16:48:11;4.73;;;1.40;;
13660;SDS011;6903;49.480;11.102;2023-03-31T16:50:37;1.90;;;1.10;;
13660;SDS011;6903;49.480;11.102;2023-03-31T16:53:02;2.93;;;0.90;;
13660;SDS011;6903;49.480;11.102;2023-03-31T16:55:29;4.33;;;1.03;;
13660;SDS011;6903;49.480;11.102;2023-03-31T16:57:55;4.73;;;1.40;;
13660;SDS011;6903;49.480;11.102;2023-03-31T17:00:22;2.33;;;1.10;;
13660;SDS011;6903;49.480;11.102;2023-03-31T17:02:48;2.37;;;1.10;;
13660;SDS011;6903;49.480;11.102;2023-03-31T17:05:13;3.13;;;1.23;;
13660;SDS011;6903;49.480;11.102;2023-03-31T17:07:39;2.50;;;1.03;;
13660;SDS011;6903;49.480;11.102;2023-03-31T17:10:05;3.00;;;1.10;;
13660;SDS011;6903;49.480;11.102;2023-03-31T17:12:31;2.73;;;1.13;;
13660;SDS011;6903;49.480;11.102;2023-03-31T17:14:56;2.43;;;1.20;;
13660;SDS011;6903;49.480;11.102;2023-03-31T17:17:21;3.10;;;1.23;;
13660;SDS011;6903;49.480;11.102;2023-03-31T17:19:47;3.30;;;1.23;;
13660;SDS011;6903;49.480;11.102;2023-03-31T17:22:12;4.47;;;1.17;;
13660;SDS011;6903;49.480;11.102;2023-03-31T17:24:37;4.00;;;1.20;;
13660;SDS011;6903;49.480;11.102;2023-03-31T17:27:03;2.77;;;1.20;;
13660;SDS011;6903;49.480;11.102;2023-03-31T17:29:28;3.97;;;1.30;;
13660;SDS011;6903;49.480;11.102;2023-03-31T17:31:53;2.30;;;1.17;;
13660;SDS011;6903;49.480;11.102;2023-03-31T17:34:19;5.70;;;1.47;;
13660;SDS011;6903;49.480;11.102;2023-03-31T17:36:45;4.63;;;1.37;;
13660;SDS011;6903;49.480;11.102;2023-03-31T17:39:11;3.20;;;1.50;;
13660;SDS011;6903;49.480;11.102;2023-03-31T17:41:36;3.43;;;1.33;;
13660;SDS011;6903;49.480;11.102;2023-03-31T17:44:01;2.70;;;1.30;;
13660;SDS011;6903;49.480;11.102;2023-03-31T17:46:28;3.50;;;1.20;;